sensor_id;sensor_type;location;lat;lon;timestamp;temperature;humidity
2463;DHT22;1243;54.298;10.172;2023-02-28T00:00:31;5.30;3.40
2463;DHT22;1243;54.298;10.172;2023-02-28T00:02:57;5.30;8.20
2463;DHT22;1243;54.298;10.172;2023-02-28T00:05:24;5.30;11.10
2463;DHT22;1243;54.298;10.172;2023-02-28T00:07:51;5.30;17.70
2463;DHT22;1243;54.298;10.172;2023-02-28T00:10:20;5.30;25.60
2463;DHT22;1243;54.298;10.172;2023-02-28T00:12:47;5.20;33.50
2463;DHT22;1243;54.298;10.172;2023-02-28T00:15:13;5.20;43.30
2463;DHT22;1243;54.298;10.172;2023-02-28T00:17:39;5.20;52.60
2463;DHT22;1243;54.298;10.172;2023-02-28T00:20:06;5.10;56.90
2463;DHT22;1243;54.298;10.172;2023-02-28T00:22:42;5.10;61.90
2463;DHT22;1243;54.298;10.172;2023-02-28T00:25:11;5.10;66.60
2463;DHT22;1243;54.298;10.172;2023-02-28T00:27:38;5.10;71.00
2463;DHT22;1243;54.298;10.172;2023-02-28T00:30:06;5.10;76.70
2463;DHT22;1243;54.298;10.172;2023-02-28T00:32:32;5.10;83.90
2463;DHT22;1243;54.298;10.172;2023-02-28T00:34:59;5.10;90.70
2463;DHT22;1243;54.298;10.172;2023-02-28T00:37:25;5.10;90.70
2463;DHT22;1243;54.298;10.172;2023-02-28T00:39:51;5.00;90.70
2463;DHT22;1243;54.298;10.172;2023-02-28T00:42:17;5.00;90.70
2463;DHT22;1243;54.298;10.172;2023-02-28T00:44:43;5.00;90.70
2463;DHT22;1243;54.298;10.172;2023-02-28T00:47:08;4.90;88.90
2463;DHT22;1243;54.298;10.172;2023-02-28T00:49:34;4.90;90.70
2463;DHT22;1243;54.298;10.172;2023-02-28T00:52:00;4.90;90.60
2463;DHT22;1243;54.298;10.172;2023-02-28T00:54:26;4.90;86.00
2463;DHT22;1243;54.298;10.172;2023-02-28T00:56:51;4.90;83.90
2463;DHT22;1243;54.298;10.172;2023-02-28T00:59:17;4.90;87.30
2463;DHT22;1243;54.298;10.172;2023-02-28T01:01:44;4.90;82.60
2463;DHT22;1243;54.298;10.172;2023-02-28T01:04:10;4.90;84.20
2463;DHT22;1243;54.298;10.172;2023-02-28T01:06:36;4.90;83.70
2463;DHT22;1243;54.298;10.172;2023-02-28T01:09:03;4.90;82.80
2463;DHT22;1243;54.298;10.172;2023-02-28T01:11:30;4.90;79.20
2463;DHT22;1243;54.298;10.172;2023-02-28T01:13:55;4.90;80.70
2463;DHT22;1243;54.298;10.172;2023-02-28T01:16:21;5.00;81.10
2463;DHT22;1243;54.298;10.172;2023-02-28T01:18:47;4.90;73.50
2463;DHT22;1243;54.298;10.172;2023-02-28T01:21:15;4.90;69.90
2463;DHT22;1243;54.298;10.172;2023-02-28T01:23:41;4.90;68.40
2463;DHT22;1243;54.298;10.172;2023-02-28T01:26:10;4.90;70.80
2463;DHT22;1243;54.298;10.172;2023-02-28T01:28:37;4.90;72.00
2463;DHT22;1243;54.298;10.172;2023-02-28T01:31:03;5.00;78.00
2463;DHT22;1243;54.298;10.172;2023-02-28T01:33:29;5.00;84.10
2463;DHT22;1243;54.298;10.172;2023-02-28T01:36:03;5.00;90.70
2463;DHT22;1243;54.298;10.172;2023-02-28T01:38:29;5.00;90.70
2463;DHT22;1243;54.298;10.172;2023-02-28T01:40:55;5.00;90.70
2463;DHT22;1243;54.298;10.172;2023-02-28T01:43:24;5.00;90.70
2463;DHT22;1243;54.298;10.172;2023-02-28T01:45:53;4.90;90.70
2463;DHT22;1243;54.298;10.172;2023-02-28T01:48:21;4.90;83.80
2463;DHT22;1243;54.298;10.172;2023-02-28T01:50:48;4.90;78.50
2463;DHT22;1243;54.298;10.172;2023-02-28T01:53:18;4.80;73.70
2463;DHT22;1243;54.298;10.172;2023-02-28T01:55:47;4.80;75.90
2463;DHT22;1243;54.298;10.172;2023-02-28T01:58:14;4.80;75.20
2463;DHT22;1243;54.298;10.172;2023-02-28T02:00:41;4.80;75.40
2463;DHT22;1243;54.298;10.172;2023-02-28T02:03:13;4.70;73.60
2463;DHT22;1243;54.298;10.172;2023-02-28T02:05:40;4.60;70.10
2463;DHT22;1243;54.298;10.172;2023-02-28T02:08:12;4.50;68.60
2463;DHT22;1243;54.298;10.172;2023-02-28T02:10:57;4.50;70.10
2463;DHT22;1243;54.298;10.172;2023-02-28T02:14:03;4.50;70.30
2463;DHT22;1243;54.298;10.172;2023-02-28T02:30:37;4.00;62.40
2463;DHT22;1243;54.298;10.172;2023-02-28T02:35:51;3.90;68.50
2463;DHT22;1243;54.298;10.172;2023-02-28T02:38:43;3.90;71.70
2463;DHT22;1243;54.298;10.172;2023-02-28T02:41:23;3.80;74.70
2463;DHT22;1243;54.298;10.172;2023-02-28T02:43:54;3.80;77.60
2463;DHT22;1243;54.298;10.172;2023-02-28T02:46:43;3.80;84.50
2463;DHT22;1243;54.298;10.172;2023-02-28T02:49:15;3.80;90.30
2463;DHT22;1243;54.298;10.172;2023-02-28T02:51:41;3.80;90.20
2463;DHT22;1243;54.298;10.172;2023-02-28T02:54:46;3.90;90.30
2463;DHT22;1243;54.298;10.172;2023-02-28T02:57:13;3.90;90.30
2463;DHT22;1243;54.298;10.172;2023-02-28T02:59:43;3.90;90.30
2463;DHT22;1243;54.298;10.172;2023-02-28T03:02:12;3.90;90.30
2463;DHT22;1243;54.298;10.172;2023-02-28T03:04:45;3.70;90.20
2463;DHT22;1243;54.298;10.172;2023-02-28T03:07:11;3.60;90.20
2463;DHT22;1243;54.298;10.172;2023-02-28T03:09:37;3.60;90.20
2463;DHT22;1243;54.298;10.172;2023-02-28T03:12:04;3.60;90.20
2463;DHT22;1243;54.298;10.172;2023-02-28T03:17:48;3.50;90.20
2463;DHT22;1243;54.298;10.172;2023-02-28T03:23:15;3.50;93.70
2463;DHT22;1243;54.298;10.172;2023-02-28T03:28:36;3.50;97.30
2463;DHT22;1243;54.298;10.172;2023-02-28T03:34:10;3.50;97.70
2463;DHT22;1243;54.298;10.172;2023-02-28T03:36:50;3.40;95.80
2463;DHT22;1243;54.298;10.172;2023-02-28T03:39:20;3.40;95.00
2463;DHT22;1243;54.298;10.172;2023-02-28T03:42:09;3.20;94.90
2463;DHT22;1243;54.298;10.172;2023-02-28T03:44:51;3.20;96.20
2463;DHT22;1243;54.298;10.172;2023-02-28T03:50:03;3.00;92.70
2463;DHT22;1243;54.298;10.172;2023-02-28T03:52:34;2.90;93.10
2463;DHT22;1243;54.298;10.172;2023-02-28T03:55:03;2.80;92.80
2463;DHT22;1243;54.298;10.172;2023-02-28T04:00:28;2.70;95.70
2463;DHT22;1243;54.298;10.172;2023-02-28T04:02:56;2.70;96.60
2463;DHT22;1243;54.298;10.172;2023-02-28T04:05:23;2.60;96.80
2463;DHT22;1243;54.298;10.172;2023-02-28T04:07:49;2.60;96.60
2463;DHT22;1243;54.298;10.172;2023-02-28T04:10:16;2.50;99.50
2463;DHT22;1243;54.298;10.172;2023-02-28T04:12:41;2.50;99.90
2463;DHT22;1243;54.298;10.172;2023-02-28T04:15:08;2.40;99.90
2463;DHT22;1243;54.298;10.172;2023-02-28T04:17:34;2.40;99.90
2463;DHT22;1243;54.298;10.172;2023-02-28T04:19:59;2.40;99.90
2463;DHT22;1243;54.298;10.172;2023-02-28T04:22:25;2.30;99.90
2463;DHT22;1243;54.298;10.172;2023-02-28T04:24:53;2.20;99.90
2463;DHT22;1243;54.298;10.172;2023-02-28T04:27:20;2.20;99.90
2463;DHT22;1243;54.298;10.172;2023-02-28T04:29:46;2.20;99.90
2463;DHT22;1243;54.298;10.172;2023-02-28T04:32:12;2.10;99.90
2463;DHT22;1243;54.298;10.172;2023-02-28T04:34:38;1.90;99.90
2463;DHT22;1243;54.298;10.172;2023-02-28T04:37:04;1.80;99.20
2463;DHT22;1243;54.298;10.172;2023-02-28T04:39:34;1.70;99.90
2463;DHT22;1243;54.298;10.172;2023-02-28T04:42:00;1.70;99.90
2463;DHT22;1243;54.298;10.172;2023-02-28T04:44:25;1.60;99.90
2463;DHT22;1243;54.298;10.172;2023-02-28T04:46:51;1.60;99.90
2463;DHT22;1243;54.298;10.172;2023-02-28T04:49:16;1.60;99.90
2463;DHT22;1243;54.298;10.172;2023-02-28T04:51:43;1.60;99.90
2463;DHT22;1243;54.298;10.172;2023-02-28T04:54:08;1.50;99.90
2463;DHT22;1243;54.298;10.172;2023-02-28T04:56:34;1.50;99.90
2463;DHT22;1243;54.298;10.172;2023-02-28T04:59:00;1.50;99.90
2463;DHT22;1243;54.298;10.172;2023-02-28T05:01:31;1.50;99.10
2463;DHT22;1243;54.298;10.172;2023-02-28T05:04:00;1.40;98.70
2463;DHT22;1243;54.298;10.172;2023-02-28T05:06:28;1.40;99.10
2463;DHT22;1243;54.298;10.172;2023-02-28T05:08:54;1.40;99.30
2463;DHT22;1243;54.298;10.172;2023-02-28T05:11:24;1.30;99.90
2463;DHT22;1243;54.298;10.172;2023-02-28T05:13:50;1.30;99.90
2463;DHT22;1243;54.298;10.172;2023-02-28T05:16:17;1.30;99.90
2463;DHT22;1243;54.298;10.172;2023-02-28T05:18:43;1.30;99.90
2463;DHT22;1243;54.298;10.172;2023-02-28T05:21:41;1.30;99.90
2463;DHT22;1243;54.298;10.172;2023-02-28T05:24:13;1.20;99.60
2463;DHT22;1243;54.298;10.172;2023-02-28T05:26:41;0.90;93.30
2463;DHT22;1243;54.298;10.172;2023-02-28T05:29:07;0.90;97.50
2463;DHT22;1243;54.298;10.172;2023-02-28T05:31:34;0.90;99.80
2463;DHT22;1243;54.298;10.172;2023-02-28T05:34:00;0.90;99.90
2463;DHT22;1243;54.298;10.172;2023-02-28T05:36:26;0.90;99.90
2463;DHT22;1243;54.298;10.172;2023-02-28T05:38:51;0.90;99.90
2463;DHT22;1243;54.298;10.172;2023-02-28T05:41:19;1.00;99.90
2463;DHT22;1243;54.298;10.172;2023-02-28T05:43:45;1.00;99.90
2463;DHT22;1243;54.298;10.172;2023-02-28T05:46:12;1.00;99.90
2463;DHT22;1243;54.298;10.172;2023-02-28T05:48:39;1.00;99.90
2463;DHT22;1243;54.298;10.172;2023-02-28T05:51:07;1.00;99.90
2463;DHT22;1243;54.298;10.172;2023-02-28T05:53:33;1.00;99.90
2463;DHT22;1243;54.298;10.172;2023-02-28T05:55:59;1.00;99.90
2463;DHT22;1243;54.298;10.172;2023-02-28T05:58:25;1.00;99.90
2463;DHT22;1243;54.298;10.172;2023-02-28T06:00:54;1.00;99.90
2463;DHT22;1243;54.298;10.172;2023-02-28T06:03:20;1.00;99.90
2463;DHT22;1243;54.298;10.172;2023-02-28T06:05:45;1.10;99.90
2463;DHT22;1243;54.298;10.172;2023-02-28T06:08:11;1.10;99.90
2463;DHT22;1243;54.298;10.172;2023-02-28T06:10:37;1.00;99.90
2463;DHT22;1243;54.298;10.172;2023-02-28T06:13:04;0.90;99.90
2463;DHT22;1243;54.298;10.172;2023-02-28T06:15:30;0.90;99.90
2463;DHT22;1243;54.298;10.172;2023-02-28T06:17:56;0.90;99.90
2463;DHT22;1243;54.298;10.172;2023-02-28T06:20:23;0.90;99.90
2463;DHT22;1243;54.298;10.172;2023-02-28T06:22:49;0.90;99.90
2463;DHT22;1243;54.298;10.172;2023-02-28T06:25:17;0.90;99.90
2463;DHT22;1243;54.298;10.172;2023-02-28T06:27:43;0.90;99.90
2463;DHT22;1243;54.298;10.172;2023-02-28T06:30:10;0.90;99.90
2463;DHT22;1243;54.298;10.172;2023-02-28T06:32:36;0.90;99.90
2463;DHT22;1243;54.298;10.172;2023-02-28T06:35:03;0.90;99.90
2463;DHT22;1243;54.298;10.172;2023-02-28T06:37:30;0.80;99.90
2463;DHT22;1243;54.298;10.172;2023-02-28T06:39:56;0.70;99.90
2463;DHT22;1243;54.298;10.172;2023-02-28T06:42:23;0.80;99.90
2463;DHT22;1243;54.298;10.172;2023-02-28T06:44:54;0.80;99.90
2463;DHT22;1243;54.298;10.172;2023-02-28T06:47:21;0.80;99.90
2463;DHT22;1243;54.298;10.172;2023-02-28T06:49:47;0.80;99.90
2463;DHT22;1243;54.298;10.172;2023-02-28T06:52:12;0.80;99.90
2463;DHT22;1243;54.298;10.172;2023-02-28T06:54:38;0.90;99.90
2463;DHT22;1243;54.298;10.172;2023-02-28T06:57:04;0.90;99.90
2463;DHT22;1243;54.298;10.172;2023-02-28T06:59:30;0.90;99.90
2463;DHT22;1243;54.298;10.172;2023-02-28T07:01:55;0.90;99.90
2463;DHT22;1243;54.298;10.172;2023-02-28T07:04:21;0.90;99.90
2463;DHT22;1243;54.298;10.172;2023-02-28T07:06:47;0.90;99.90
2463;DHT22;1243;54.298;10.172;2023-02-28T07:09:13;0.90;99.90
2463;DHT22;1243;54.298;10.172;2023-02-28T07:11:39;0.90;99.90
2463;DHT22;1243;54.298;10.172;2023-02-28T07:14:06;0.90;99.90
2463;DHT22;1243;54.298;10.172;2023-02-28T07:16:32;1.00;99.90
2463;DHT22;1243;54.298;10.172;2023-02-28T07:18:58;1.00;99.90
2463;DHT22;1243;54.298;10.172;2023-02-28T07:21:24;1.00;99.90
2463;DHT22;1243;54.298;10.172;2023-02-28T07:23:50;1.00;99.90
2463;DHT22;1243;54.298;10.172;2023-02-28T07:26:18;1.10;99.90
2463;DHT22;1243;54.298;10.172;2023-02-28T07:28:46;1.10;99.90
2463;DHT22;1243;54.298;10.172;2023-02-28T07:31:12;1.20;99.90
2463;DHT22;1243;54.298;10.172;2023-02-28T07:33:39;1.20;99.90
2463;DHT22;1243;54.298;10.172;2023-02-28T07:36:08;1.30;99.90
2463;DHT22;1243;54.298;10.172;2023-02-28T07:38:36;1.40;99.90
2463;DHT22;1243;54.298;10.172;2023-02-28T07:41:02;1.50;99.90
2463;DHT22;1243;54.298;10.172;2023-02-28T07:43:32;1.50;99.90
2463;DHT22;1243;54.298;10.172;2023-02-28T07:46:06;1.60;99.90
2463;DHT22;1243;54.298;10.172;2023-02-28T07:48:32;1.80;99.90
2463;DHT22;1243;54.298;10.172;2023-02-28T07:50:59;1.90;99.90
2463;DHT22;1243;54.298;10.172;2023-02-28T07:53:26;2.00;99.90
2463;DHT22;1243;54.298;10.172;2023-02-28T07:55:58;2.10;99.90
2463;DHT22;1243;54.298;10.172;2023-02-28T07:58:24;2.30;99.90
2463;DHT22;1243;54.298;10.172;2023-02-28T08:00:50;2.30;99.90
2463;DHT22;1243;54.298;10.172;2023-02-28T08:03:18;2.50;99.90
2463;DHT22;1243;54.298;10.172;2023-02-28T08:05:45;2.60;99.90
2463;DHT22;1243;54.298;10.172;2023-02-28T08:08:10;2.70;99.90
2463;DHT22;1243;54.298;10.172;2023-02-28T08:10:37;2.90;99.90
2463;DHT22;1243;54.298;10.172;2023-02-28T08:13:02;3.00;99.90
2463;DHT22;1243;54.298;10.172;2023-02-28T08:15:28;3.10;99.90
2463;DHT22;1243;54.298;10.172;2023-02-28T08:17:54;3.20;99.90
2463;DHT22;1243;54.298;10.172;2023-02-28T08:20:22;3.20;99.90
2463;DHT22;1243;54.298;10.172;2023-02-28T08:22:48;3.30;99.90
2463;DHT22;1243;54.298;10.172;2023-02-28T08:25:14;3.40;99.90
2463;DHT22;1243;54.298;10.172;2023-02-28T08:27:40;3.60;99.90
2463;DHT22;1243;54.298;10.172;2023-02-28T08:30:06;3.70;99.90
2463;DHT22;1243;54.298;10.172;2023-02-28T08:32:33;3.80;99.90
2463;DHT22;1243;54.298;10.172;2023-02-28T08:34:59;3.90;99.90
2463;DHT22;1243;54.298;10.172;2023-02-28T08:37:25;4.00;99.90
2463;DHT22;1243;54.298;10.172;2023-02-28T08:39:51;4.10;99.80
2463;DHT22;1243;54.298;10.172;2023-02-28T08:42:17;4.20;90.40
2463;DHT22;1243;54.298;10.172;2023-02-28T08:44:42;4.40;90.50
2463;DHT22;1243;54.298;10.172;2023-02-28T08:47:08;4.40;83.50
2463;DHT22;1243;54.298;10.172;2023-02-28T08:49:34;4.60;73.20
2463;DHT22;1243;54.298;10.172;2023-02-28T08:51:59;4.70;68.20
2463;DHT22;1243;54.298;10.172;2023-02-28T08:54:25;4.90;66.70
2463;DHT22;1243;54.298;10.172;2023-02-28T08:56:51;5.10;56.90
2463;DHT22;1243;54.298;10.172;2023-02-28T08:59:17;5.20;42.40
2463;DHT22;1243;54.298;10.172;2023-02-28T09:01:42;5.30;29.80
2463;DHT22;1243;54.298;10.172;2023-02-28T09:04:09;5.40;36.10
2463;DHT22;1243;54.298;10.172;2023-02-28T09:06:36;5.50;24.70
2463;DHT22;1243;54.298;10.172;2023-02-28T09:09:02;5.50;13.50
2463;DHT22;1243;54.298;10.172;2023-02-28T09:11:31;5.60;14.20
2463;DHT22;1243;54.298;10.172;2023-02-28T09:13:57;5.70;8.60
2463;DHT22;1243;54.298;10.172;2023-02-28T09:16:24;5.80;4.60
2463;DHT22;1243;54.298;10.172;2023-02-28T09:18:50;5.80;2.10
2463;DHT22;1243;54.298;10.172;2023-02-28T09:21:18;6.00;1.00
2463;DHT22;1243;54.298;10.172;2023-02-28T09:23:45;6.10;1.00
2463;DHT22;1243;54.298;10.172;2023-02-28T09:26:25;6.20;1.00
2463;DHT22;1243;54.298;10.172;2023-02-28T09:28:51;6.30;1.00
2463;DHT22;1243;54.298;10.172;2023-02-28T09:31:20;6.60;1.00
2463;DHT22;1243;54.298;10.172;2023-02-28T09:33:51;6.80;1.00
2463;DHT22;1243;54.298;10.172;2023-02-28T09:36:18;7.00;1.00
2463;DHT22;1243;54.298;10.172;2023-02-28T09:38:44;7.20;1.00
2463;DHT22;1243;54.298;10.172;2023-02-28T09:41:16;7.40;1.00
2463;DHT22;1243;54.298;10.172;2023-02-28T09:43:49;7.50;1.00
2463;DHT22;1243;54.298;10.172;2023-02-28T09:46:43;7.70;1.00
2463;DHT22;1243;54.298;10.172;2023-02-28T09:49:23;7.80;1.00
2463;DHT22;1243;54.298;10.172;2023-02-28T09:52:00;7.90;1.00
2463;DHT22;1243;54.298;10.172;2023-02-28T09:54:30;8.10;1.00
2463;DHT22;1243;54.298;10.172;2023-02-28T09:57:01;8.20;1.00
2463;DHT22;1243;54.298;10.172;2023-02-28T10:04:59;8.00;1.00
2463;DHT22;1243;54.298;10.172;2023-02-28T10:10:44;7.70;1.00
2463;DHT22;1243;54.298;10.172;2023-02-28T10:13:36;7.80;1.00
2463;DHT22;1243;54.298;10.172;2023-02-28T10:16:27;7.80;1.00
2463;DHT22;1243;54.298;10.172;2023-02-28T10:19:00;8.20;1.00
2463;DHT22;1243;54.298;10.172;2023-02-28T10:21:38;8.90;1.00
2463;DHT22;1243;54.298;10.172;2023-02-28T10:24:23;9.60;1.00
2463;DHT22;1243;54.298;10.172;2023-02-28T10:26:56;10.20;1.00
2463;DHT22;1243;54.298;10.172;2023-02-28T10:29:24;10.80;1.00
2463;DHT22;1243;54.298;10.172;2023-02-28T10:31:50;11.00;1.00
2463;DHT22;1243;54.298;10.172;2023-02-28T10:34:16;11.00;1.00
2463;DHT22;1243;54.298;10.172;2023-02-28T10:36:42;11.10;1.00
2463;DHT22;1243;54.298;10.172;2023-02-28T10:39:38;11.20;1.00
2463;DHT22;1243;54.298;10.172;2023-02-28T10:42:05;11.70;1.00
2463;DHT22;1243;54.298;10.172;2023-02-28T10:44:43;12.00;1.00
2463;DHT22;1243;54.298;10.172;2023-02-28T10:47:17;12.50;1.00
2463;DHT22;1243;54.298;10.172;2023-02-28T10:49:49;12.80;1.00
2463;DHT22;1243;54.298;10.172;2023-02-28T10:52:36;12.90;1.00
2463;DHT22;1243;54.298;10.172;2023-02-28T10:55:35;12.60;1.00
2463;DHT22;1243;54.298;10.172;2023-02-28T10:58:00;12.40;1.00
2463;DHT22;1243;54.298;10.172;2023-02-28T11:00:34;12.10;1.00
2463;DHT22;1243;54.298;10.172;2023-02-28T11:03:00;11.70;1.00
2463;DHT22;1243;54.298;10.172;2023-02-28T11:05:35;11.40;1.00
2463;DHT22;1243;54.298;10.172;2023-02-28T11:08:20;11.00;1.00
2463;DHT22;1243;54.298;10.172;2023-02-28T11:10:48;10.60;1.00
2463;DHT22;1243;54.298;10.172;2023-02-28T11:13:20;10.10;1.00
2463;DHT22;1243;54.298;10.172;2023-02-28T11:15:54;9.80;1.00
2463;DHT22;1243;54.298;10.172;2023-02-28T11:18:30;9.90;1.00
2463;DHT22;1243;54.298;10.172;2023-02-28T11:21:01;10.00;1.00
2463;DHT22;1243;54.298;10.172;2023-02-28T11:23:30;10.00;1.00
2463;DHT22;1243;54.298;10.172;2023-02-28T11:26:02;10.10;1.00
2463;DHT22;1243;54.298;10.172;2023-02-28T11:28:35;9.90;1.00
2463;DHT22;1243;54.298;10.172;2023-02-28T11:33:54;9.70;1.00
2463;DHT22;1243;54.298;10.172;2023-02-28T11:38:55;10.00;1.00
2463;DHT22;1243;54.298;10.172;2023-02-28T11:46:41;10.60;1.00
2463;DHT22;1243;54.298;10.172;2023-02-28T11:57:22;13.10;1.00
2463;DHT22;1243;54.298;10.172;2023-02-28T12:05:49;13.80;1.00
2463;DHT22;1243;54.298;10.172;2023-02-28T12:18:32;14.20;1.00
2463;DHT22;1243;54.298;10.172;2023-02-28T12:26:59;13.40;1.00
2463;DHT22;1243;54.298;10.172;2023-02-28T12:29:58;13.50;1.00
2463;DHT22;1243;54.298;10.172;2023-02-28T12:32:39;13.70;1.00
2463;DHT22;1243;54.298;10.172;2023-02-28T12:37:47;13.90;1.00
2463;DHT22;1243;54.298;10.172;2023-02-28T12:40:19;13.70;1.00
2463;DHT22;1243;54.298;10.172;2023-02-28T12:42:50;13.10;1.00
2463;DHT22;1243;54.298;10.172;2023-02-28T12:45:18;13.00;1.00
2463;DHT22;1243;54.298;10.172;2023-02-28T12:47:44;12.70;1.00
2463;DHT22;1243;54.298;10.172;2023-02-28T12:50:11;12.50;1.00
2463;DHT22;1243;54.298;10.172;2023-02-28T12:52:43;12.60;1.00
2463;DHT22;1243;54.298;10.172;2023-02-28T13:00:53;13.70;1.00
2463;DHT22;1243;54.298;10.172;2023-02-28T13:03:46;14.20;1.00
2463;DHT22;1243;54.298;10.172;2023-02-28T13:06:28;15.20;1.00
2463;DHT22;1243;54.298;10.172;2023-02-28T13:17:17;19.20;1.00
2463;DHT22;1243;54.298;10.172;2023-02-28T13:19:59;19.90;1.00
2463;DHT22;1243;54.298;10.172;2023-02-28T13:24:53;20.60;1.00
2463;DHT22;1243;54.298;10.172;2023-02-28T13:27:37;20.60;1.00
2463;DHT22;1243;54.298;10.172;2023-02-28T13:33:31;21.50;1.00
2463;DHT22;1243;54.298;10.172;2023-02-28T13:38:37;21.90;1.00
2463;DHT22;1243;54.298;10.172;2023-02-28T13:44:09;22.30;1.00
2463;DHT22;1243;54.298;10.172;2023-02-28T13:49:32;22.50;99.90
2463;DHT22;1243;54.298;10.172;2023-02-28T13:58:24;20.50;99.90
2463;DHT22;1243;54.298;10.172;2023-02-28T14:01:04;18.60;99.90
2463;DHT22;1243;54.298;10.172;2023-02-28T14:06:27;15.60;99.90
2463;DHT22;1243;54.298;10.172;2023-02-28T14:09:25;14.30;99.90
2463;DHT22;1243;54.298;10.172;2023-02-28T14:11:52;13.30;99.90
2463;DHT22;1243;54.298;10.172;2023-02-28T14:17:03;12.30;99.90
2463;DHT22;1243;54.298;10.172;2023-02-28T14:19:31;11.90;99.90
2463;DHT22;1243;54.298;10.172;2023-02-28T14:27:32;11.10;99.90
2463;DHT22;1243;54.298;10.172;2023-02-28T14:36:04;10.20;99.90
2463;DHT22;1243;54.298;10.172;2023-02-28T14:38:42;10.20;99.90
2463;DHT22;1243;54.298;10.172;2023-02-28T14:41:22;10.20;99.90
2463;DHT22;1243;54.298;10.172;2023-02-28T14:43:53;10.20;99.90
2463;DHT22;1243;54.298;10.172;2023-02-28T14:46:20;10.10;99.90
2463;DHT22;1243;54.298;10.172;2023-02-28T14:48:48;10.10;99.90
2463;DHT22;1243;54.298;10.172;2023-02-28T14:51:19;9.90;99.90
2463;DHT22;1243;54.298;10.172;2023-02-28T14:53:50;9.60;99.90
2463;DHT22;1243;54.298;10.172;2023-02-28T14:56:37;9.70;99.90
2463;DHT22;1243;54.298;10.172;2023-02-28T14:59:05;9.90;99.90
2463;DHT22;1243;54.298;10.172;2023-02-28T15:01:31;9.90;99.90
2463;DHT22;1243;54.298;10.172;2023-02-28T15:04:05;9.90;99.90
2463;DHT22;1243;54.298;10.172;2023-02-28T15:06:32;10.00;99.90
2463;DHT22;1243;54.298;10.172;2023-02-28T15:09:27;10.00;99.90
2463;DHT22;1243;54.298;10.172;2023-02-28T15:11:55;10.00;99.90
2463;DHT22;1243;54.298;10.172;2023-02-28T15:14:21;9.90;99.90
2463;DHT22;1243;54.298;10.172;2023-02-28T15:16:55;10.00;99.90
2463;DHT22;1243;54.298;10.172;2023-02-28T15:19:24;10.40;99.90
2463;DHT22;1243;54.298;10.172;2023-02-28T15:22:04;10.70;99.90
2463;DHT22;1243;54.298;10.172;2023-02-28T15:24:43;10.60;99.90
2463;DHT22;1243;54.298;10.172;2023-02-28T15:27:30;10.40;99.90
2463;DHT22;1243;54.298;10.172;2023-02-28T15:30:05;10.20;99.90
2463;DHT22;1243;54.298;10.172;2023-02-28T15:32:37;10.10;99.90
2463;DHT22;1243;54.298;10.172;2023-02-28T15:38:12;9.90;99.90
2463;DHT22;1243;54.298;10.172;2023-02-28T15:40:45;9.90;99.90
2463;DHT22;1243;54.298;10.172;2023-02-28T15:43:30;9.70;99.90
2463;DHT22;1243;54.298;10.172;2023-02-28T15:46:03;9.60;99.90
2463;DHT22;1243;54.298;10.172;2023-02-28T15:48:30;9.50;99.90
2463;DHT22;1243;54.298;10.172;2023-02-28T15:51:09;9.40;99.90
2463;DHT22;1243;54.298;10.172;2023-02-28T15:53:47;9.30;99.90
2463;DHT22;1243;54.298;10.172;2023-02-28T15:56:35;9.30;99.90
2463;DHT22;1243;54.298;10.172;2023-02-28T15:59:06;9.20;99.90
2463;DHT22;1243;54.298;10.172;2023-02-28T16:01:36;9.10;99.90
2463;DHT22;1243;54.298;10.172;2023-02-28T16:04:13;9.00;99.90
2463;DHT22;1243;54.298;10.172;2023-02-28T16:06:43;8.80;99.90
2463;DHT22;1243;54.298;10.172;2023-02-28T16:09:15;8.70;99.90
2463;DHT22;1243;54.298;10.172;2023-02-28T16:11:49;8.70;99.90
2463;DHT22;1243;54.298;10.172;2023-02-28T16:14:22;8.70;99.90
2463;DHT22;1243;54.298;10.172;2023-02-28T16:16:57;8.60;99.90
2463;DHT22;1243;54.298;10.172;2023-02-28T16:19:27;8.60;99.90
2463;DHT22;1243;54.298;10.172;2023-02-28T16:21:52;8.50;99.90
2463;DHT22;1243;54.298;10.172;2023-02-28T16:24:18;8.50;99.90
2463;DHT22;1243;54.298;10.172;2023-02-28T16:26:47;8.30;99.90
2463;DHT22;1243;54.298;10.172;2023-02-28T16:29:23;8.30;1.00
2463;DHT22;1243;54.298;10.172;2023-02-28T16:31:50;8.20;1.00
2463;DHT22;1243;54.298;10.172;2023-02-28T16:34:15;8.20;1.00
2463;DHT22;1243;54.298;10.172;2023-02-28T16:36:41;8.10;1.00
2463;DHT22;1243;54.298;10.172;2023-02-28T16:39:07;8.00;1.00
2463;DHT22;1243;54.298;10.172;2023-02-28T16:41:34;7.90;1.00
2463;DHT22;1243;54.298;10.172;2023-02-28T16:44:00;7.80;1.00
2463;DHT22;1243;54.298;10.172;2023-02-28T16:46:35;7.70;1.00
2463;DHT22;1243;54.298;10.172;2023-02-28T16:49:01;7.50;1.00
2463;DHT22;1243;54.298;10.172;2023-02-28T16:51:27;7.30;1.00
2463;DHT22;1243;54.298;10.172;2023-02-28T16:53:53;7.20;1.00
2463;DHT22;1243;54.298;10.172;2023-02-28T16:56:21;7.00;1.00
2463;DHT22;1243;54.298;10.172;2023-02-28T16:58:48;6.90;1.00
2463;DHT22;1243;54.298;10.172;2023-02-28T17:01:15;6.80;1.00
2463;DHT22;1243;54.298;10.172;2023-02-28T17:03:41;6.70;1.00
2463;DHT22;1243;54.298;10.172;2023-02-28T17:06:24;6.60;1.00
2463;DHT22;1243;54.298;10.172;2023-02-28T17:08:51;6.50;1.00
2463;DHT22;1243;54.298;10.172;2023-02-28T17:11:17;6.10;1.00
2463;DHT22;1243;54.298;10.172;2023-02-28T17:13:44;6.00;1.00
2463;DHT22;1243;54.298;10.172;2023-02-28T17:16:31;5.90;1.00
2463;DHT22;1243;54.298;10.172;2023-02-28T17:19:03;5.80;1.00
2463;DHT22;1243;54.298;10.172;2023-02-28T17:21:31;5.70;1.00
2463;DHT22;1243;54.298;10.172;2023-02-28T17:23:57;5.70;1.00
2463;DHT22;1243;54.298;10.172;2023-02-28T17:26:23;5.60;1.00
2463;DHT22;1243;54.298;10.172;2023-02-28T17:28:51;5.50;1.00
2463;DHT22;1243;54.298;10.172;2023-02-28T17:31:17;5.40;1.00
2463;DHT22;1243;54.298;10.172;2023-02-28T17:33:44;5.30;1.00
2463;DHT22;1243;54.298;10.172;2023-02-28T17:36:21;5.30;1.00
2463;DHT22;1243;54.298;10.172;2023-02-28T17:38:47;5.20;1.00
2463;DHT22;1243;54.298;10.172;2023-02-28T17:41:13;5.10;1.00
2463;DHT22;1243;54.298;10.172;2023-02-28T17:43:39;5.10;1.00
2463;DHT22;1243;54.298;10.172;2023-02-28T17:46:08;5.00;1.00
2463;DHT22;1243;54.298;10.172;2023-02-28T17:48:39;4.90;1.00
2463;DHT22;1243;54.298;10.172;2023-02-28T17:51:05;4.80;1.00
2463;DHT22;1243;54.298;10.172;2023-02-28T17:53:31;4.80;1.00
2463;DHT22;1243;54.298;10.172;2023-02-28T17:55:56;4.70;1.00
2463;DHT22;1243;54.298;10.172;2023-02-28T17:58:22;4.70;1.00
2463;DHT22;1243;54.298;10.172;2023-02-28T18:00:48;4.60;1.00
2463;DHT22;1243;54.298;10.172;2023-02-28T18:03:19;4.50;1.00
2463;DHT22;1243;54.298;10.172;2023-02-28T18:05:46;4.40;1.00
2463;DHT22;1243;54.298;10.172;2023-02-28T18:08:12;4.40;1.00
2463;DHT22;1243;54.298;10.172;2023-02-28T18:10:39;4.30;1.00
2463;DHT22;1243;54.298;10.172;2023-02-28T18:13:04;4.30;1.00
2463;DHT22;1243;54.298;10.172;2023-02-28T18:15:30;4.20;1.00
2463;DHT22;1243;54.298;10.172;2023-02-28T18:17:56;4.20;1.00
2463;DHT22;1243;54.298;10.172;2023-02-28T18:20:22;4.10;1.00
2463;DHT22;1243;54.298;10.172;2023-02-28T18:22:48;4.10;1.00
2463;DHT22;1243;54.298;10.172;2023-02-28T18:25:13;4.00;1.00
2463;DHT22;1243;54.298;10.172;2023-02-28T18:27:41;4.00;1.00
2463;DHT22;1243;54.298;10.172;2023-02-28T18:30:19;3.90;1.00
2463;DHT22;1243;54.298;10.172;2023-02-28T18:32:45;3.90;1.00
2463;DHT22;1243;54.298;10.172;2023-02-28T18:35:11;3.90;1.00
2463;DHT22;1243;54.298;10.172;2023-02-28T18:37:37;3.90;1.00
2463;DHT22;1243;54.298;10.172;2023-02-28T18:40:03;3.90;1.00
2463;DHT22;1243;54.298;10.172;2023-02-28T18:42:29;3.90;1.00